sensor_id;sensor_type;location;lat;lon;timestamp;pressure;altitude;pressure_sealevel;temperature;humidity
28432;BME280;15664;51.302;7.744;2022-12-11T00:01:17;84110.38;;;-146.98;94.24
28432;BME280;15664;51.302;7.744;2022-12-11T00:03:44;84130.75;;;-146.98;94.25
28432;BME280;15664;51.302;7.744;2022-12-11T00:06:12;84120.56;;;-146.98;94.32
28432;BME280;15664;51.302;7.744;2022-12-11T00:08:38;84100.19;;;-146.98;94.34
28432;BME280;15664;51.302;7.744;2022-12-11T00:11:04;84175.56;;;-146.98;94.29
28432;BME280;15664;51.302;7.744;2022-12-11T00:13:29;84118.50;;;-146.98;94.32
28432;BME280;15664;51.302;7.744;2022-12-11T00:15:57;84126.66;;;-146.98;94.46
28432;BME280;15664;51.302;7.744;2022-12-11T00:18:22;84120.56;;;-146.98;94.51
28432;BME280;15664;51.302;7.744;2022-12-11T00:20:47;84118.50;;;-146.98;94.56
28432;BME280;15664;51.302;7.744;2022-12-11T00:23:13;84163.31;;;-146.98;94.58
28432;BME280;15664;51.302;7.744;2022-12-11T00:25:42;84098.16;;;-146.98;94.74
28432;BME280;15664;51.302;7.744;2022-12-11T00:28:08;84142.97;;;-146.98;94.79
28432;BME280;15664;51.302;7.744;2022-12-11T00:30:38;84110.38;;;-146.98;94.70
28432;BME280;15664;51.302;7.744;2022-12-11T00:33:04;84134.81;;;-146.98;94.66
28432;BME280;15664;51.302;7.744;2022-12-11T00:35:30;84120.56;;;-146.98;94.76
28432;BME280;15664;51.302;7.744;2022-12-11T00:37:55;84114.44;;;-146.98;94.83
28432;BME280;15664;51.302;7.744;2022-12-11T00:40:21;84106.28;;;-146.98;94.81
28432;BME280;15664;51.302;7.744;2022-12-11T00:42:46;84100.19;;;-146.98;94.96
28432;BME280;15664;51.302;7.744;2022-12-11T00:45:12;84094.06;;;-146.98;94.94
28432;BME280;15664;51.302;7.744;2022-12-11T00:47:37;84102.22;;;-146.98;94.99
28432;BME280;15664;51.302;7.744;2022-12-11T00:50:03;84126.66;;;-146.98;95.03
28432;BME280;15664;51.302;7.744;2022-12-11T00:52:28;84130.75;;;-146.98;95.21
28432;BME280;15664;51.302;7.744;2022-12-11T00:54:54;84102.22;;;-146.98;95.17
28432;BME280;15664;51.302;7.744;2022-12-11T00:57:19;84142.97;;;-146.98;95.29
28432;BME280;15664;51.302;7.744;2022-12-11T00:59:44;84197.97;;;-146.98;95.37
28432;BME280;15664;51.302;7.744;2022-12-11T01:02:09;84161.28;;;-146.98;95.47
28432;BME280;15664;51.302;7.744;2022-12-11T01:04:35;84153.16;;;-146.98;95.48
28432;BME280;15664;51.302;7.744;2022-12-11T01:07:01;84165.38;;;-146.98;95.72
28432;BME280;15664;51.302;7.744;2022-12-11T01:09:26;84132.78;;;-146.98;95.75
28432;BME280;15664;51.302;7.744;2022-12-11T01:12:10;84122.59;;;-146.98;95.75
28432;BME280;15664;51.302;7.744;2022-12-11T01:14:35;84142.97;;;-146.98;95.83
28432;BME280;15664;51.302;7.744;2022-12-11T01:17:01;84073.72;;;-146.98;95.97
28432;BME280;15664;51.302;7.744;2022-12-11T01:19:26;84138.88;;;-146.98;96.04
28432;BME280;15664;51.302;7.744;2022-12-11T01:21:52;84130.75;;;-146.98;96.02
28432;BME280;15664;51.302;7.744;2022-12-11T01:24:17;84077.78;;;-146.98;96.04
28432;BME280;15664;51.302;7.744;2022-12-11T01:26:43;84163.31;;;-146.98;96.28
28432;BME280;15664;51.302;7.744;2022-12-11T01:29:08;84177.59;;;-146.98;96.22
28432;BME280;15664;51.302;7.744;2022-12-11T01:31:33;84102.22;;;-146.98;96.34
28432;BME280;15664;51.302;7.744;2022-12-11T01:33:58;84138.88;;;-146.98;96.42
28432;BME280;15664;51.302;7.744;2022-12-11T01:36:24;84142.97;;;-146.98;96.46
28432;BME280;15664;51.302;7.744;2022-12-11T01:38:49;84106.28;;;-146.98;96.52
28432;BME280;15664;51.302;7.744;2022-12-11T01:41:16;84122.59;;;-146.98;96.50
28432;BME280;15664;51.302;7.744;2022-12-11T01:46:22;84132.78;;;-146.98;96.65
28432;BME280;15664;51.302;7.744;2022-12-11T01:48:47;84122.59;;;-146.98;96.64
28432;BME280;15664;51.302;7.744;2022-12-11T01:51:13;84195.91;;;-146.98;96.55
28432;BME280;15664;51.302;7.744;2022-12-11T01:53:45;84102.22;;;-146.98;96.60
28432;BME280;15664;51.302;7.744;2022-12-11T01:56:12;84120.56;;;-146.98;96.62
28432;BME280;15664;51.302;7.744;2022-12-11T01:58:41;84140.91;;;-146.98;96.65
28432;BME280;15664;51.302;7.744;2022-12-11T02:01:14;84155.19;;;-146.98;96.65
28432;BME280;15664;51.302;7.744;2022-12-11T02:03:41;84134.81;;;-146.98;96.83
28432;BME280;15664;51.302;7.744;2022-12-11T02:06:28;84130.75;;;-146.98;96.72
28432;BME280;15664;51.302;7.744;2022-12-11T02:08:54;84024.81;;;-146.98;96.90
28432;BME280;15664;51.302;7.744;2022-12-11T02:11:22;84167.41;;;-146.98;96.92
28432;BME280;15664;51.302;7.744;2022-12-11T02:14:00;84171.47;;;-146.98;96.97
28432;BME280;15664;51.302;7.744;2022-12-11T02:16:37;84147.03;;;-146.98;96.98
28432;BME280;15664;51.302;7.744;2022-12-11T02:22:10;84092.03;;;-146.98;97.12
28432;BME280;15664;51.302;7.744;2022-12-11T02:24:57;84114.44;;;-146.98;97.32
28432;BME280;15664;51.302;7.744;2022-12-11T02:27:32;84140.91;;;-146.98;97.31
28432;BME280;15664;51.302;7.744;2022-12-11T02:30:08;84142.97;;;-146.98;97.39
28432;BME280;15664;51.302;7.744;2022-12-11T02:37:50;84132.78;;;-146.98;97.46
28432;BME280;15664;51.302;7.744;2022-12-11T02:40:21;84081.84;;;-146.98;97.37
28432;BME280;15664;51.302;7.744;2022-12-11T02:42:49;84130.75;;;-146.98;97.44
28432;BME280;15664;51.302;7.744;2022-12-11T02:45:17;84134.81;;;-146.98;97.38
28432;BME280;15664;51.302;7.744;2022-12-11T02:47:45;84120.56;;;-146.98;97.47
28432;BME280;15664;51.302;7.744;2022-12-11T02:50:14;84157.22;;;-146.98;97.53
28432;BME280;15664;51.302;7.744;2022-12-11T02:52:43;84122.59;;;-146.98;97.55
28432;BME280;15664;51.302;7.744;2022-12-11T02:55:11;84094.06;;;-146.98;97.75
28432;BME280;15664;51.302;7.744;2022-12-11T02:57:54;84134.81;;;-146.98;97.78
28432;BME280;15664;51.302;7.744;2022-12-11T03:00:21;84167.41;;;-146.98;97.78
28432;BME280;15664;51.302;7.744;2022-12-11T03:02:46;84126.66;;;-146.98;97.92
28432;BME280;15664;51.302;7.744;2022-12-11T03:05:12;84159.25;;;-146.98;98.08
28432;BME280;15664;51.302;7.744;2022-12-11T03:07:41;84053.34;;;-146.98;98.15
28432;BME280;15664;51.302;7.744;2022-12-11T03:10:08;84171.47;;;-146.98;98.18
28432;BME280;15664;51.302;7.744;2022-12-11T03:12:38;84175.56;;;-146.98;98.38
28432;BME280;15664;51.302;7.744;2022-12-11T03:15:07;84138.88;;;-146.98;98.31
28432;BME280;15664;51.302;7.744;2022-12-11T03:20:40;84130.75;;;-146.98;98.50
28432;BME280;15664;51.302;7.744;2022-12-11T03:25:51;84128.69;;;-146.98;98.70
28432;BME280;15664;51.302;7.744;2022-12-11T03:28:21;84151.09;;;-146.98;98.61
28432;BME280;15664;51.302;7.744;2022-12-11T03:30:51;84114.44;;;-146.98;98.74
28432;BME280;15664;51.302;7.744;2022-12-11T03:33:31;84134.81;;;-146.98;98.74
28432;BME280;15664;51.302;7.744;2022-12-11T03:36:06;84145.00;;;-146.98;98.88
28432;BME280;15664;51.302;7.744;2022-12-11T03:38:48;84163.31;;;-146.98;98.82
28432;BME280;15664;51.302;7.744;2022-12-11T03:41:17;84161.28;;;-146.98;98.74
28432;BME280;15664;51.302;7.744;2022-12-11T03:43:44;84104.25;;;-146.98;98.84
28432;BME280;15664;51.302;7.744;2022-12-11T03:46:11;84138.88;;;-146.98;98.87
28432;BME280;15664;51.302;7.744;2022-12-11T03:48:39;84118.50;;;-146.98;98.99
28432;BME280;15664;51.302;7.744;2022-12-11T03:51:07;84145.00;;;-146.98;98.88
28432;BME280;15664;51.302;7.744;2022-12-11T03:53:34;84126.66;;;-146.98;98.93
28432;BME280;15664;51.302;7.744;2022-12-11T03:56:01;84151.09;;;-146.98;98.88
28432;BME280;15664;51.302;7.744;2022-12-11T03:58:27;84081.84;;;-146.98;98.92
28432;BME280;15664;51.302;7.744;2022-12-11T04:00:53;84126.66;;;-146.98;98.95
28432;BME280;15664;51.302;7.744;2022-12-11T04:03:18;84073.72;;;-146.98;98.94
28432;BME280;15664;51.302;7.744;2022-12-11T04:05:49;84114.44;;;-146.98;98.96
28432;BME280;15664;51.302;7.744;2022-12-11T04:08:16;84136.84;;;-146.98;98.98
28432;BME280;15664;51.302;7.744;2022-12-11T04:10:42;84130.75;;;-146.98;99.05
28432;BME280;15664;51.302;7.744;2022-12-11T04:13:09;84112.41;;;-146.98;99.05
28432;BME280;15664;51.302;7.744;2022-12-11T04:15:35;84096.09;;;-146.98;99.10
28432;BME280;15664;51.302;7.744;2022-12-11T04:18:01;84130.75;;;-146.98;98.98
28432;BME280;15664;51.302;7.744;2022-12-11T04:20:45;84138.88;;;-146.98;98.97
28432;BME280;15664;51.302;7.744;2022-12-11T04:23:28;84085.94;;;-146.98;99.05
28432;BME280;15664;51.302;7.744;2022-12-11T04:26:18;84085.94;;;-146.98;99.01
28432;BME280;15664;51.302;7.744;2022-12-11T04:28:44;84132.78;;;-146.98;99.06
28432;BME280;15664;51.302;7.744;2022-12-11T04:31:12;84126.66;;;-146.98;99.07
28432;BME280;15664;51.302;7.744;2022-12-11T04:33:38;84118.50;;;-146.98;99.10
28432;BME280;15664;51.302;7.744;2022-12-11T04:36:03;84102.22;;;-146.98;99.14
28432;BME280;15664;51.302;7.744;2022-12-11T04:38:29;84118.50;;;-146.98;99.08
28432;BME280;15664;51.302;7.744;2022-12-11T04:41:06;84102.22;;;-146.98;99.14
28432;BME280;15664;51.302;7.744;2022-12-11T04:43:32;84122.59;;;-146.98;99.11
28432;BME280;15664;51.302;7.744;2022-12-11T04:46:07;84087.97;;;-146.98;99.09
28432;BME280;15664;51.302;7.744;2022-12-11T04:48:33;84122.59;;;-146.98;99.06
28432;BME280;15664;51.302;7.744;2022-12-11T04:50:59;84083.88;;;-146.98;99.11
28432;BME280;15664;51.302;7.744;2022-12-11T04:53:25;84114.44;;;-146.98;98.95
28432;BME280;15664;51.302;7.744;2022-12-11T04:55:50;84128.69;;;-146.98;99.05
28432;BME280;15664;51.302;7.744;2022-12-11T04:58:15;84087.97;;;-146.98;99.12
28432;BME280;15664;51.302;7.744;2022-12-11T05:00:41;84098.16;;;-146.98;98.96
28432;BME280;15664;51.302;7.744;2022-12-11T05:03:07;84096.09;;;-146.98;98.89
28432;BME280;15664;51.302;7.744;2022-12-11T05:05:33;84122.59;;;-146.98;98.90
28432;BME280;15664;51.302;7.744;2022-12-11T05:07:58;84126.66;;;-146.98;98.92
28432;BME280;15664;51.302;7.744;2022-12-11T05:10:23;84140.91;;;-146.98;98.93
28432;BME280;15664;51.302;7.744;2022-12-11T05:12:48;84116.47;;;-146.98;98.87
28432;BME280;15664;51.302;7.744;2022-12-11T05:15:15;84159.25;;;-146.98;98.71
28432;BME280;15664;51.302;7.744;2022-12-11T05:17:40;84102.22;;;-146.98;98.80
28432;BME280;15664;51.302;7.744;2022-12-11T05:20:07;84081.84;;;-146.98;98.61
28432;BME280;15664;51.302;7.744;2022-12-11T05:22:32;84063.53;;;-146.98;98.69
28432;BME280;15664;51.302;7.744;2022-12-11T05:24:57;84094.06;;;-146.98;98.52
28432;BME280;15664;51.302;7.744;2022-12-11T05:27:23;84126.66;;;-146.98;98.54
28432;BME280;15664;51.302;7.744;2022-12-11T05:29:48;84204.06;;;-146.98;98.39
28432;BME280;15664;51.302;7.744;2022-12-11T05:32:14;84118.50;;;-146.98;98.50
28432;BME280;15664;51.302;7.744;2022-12-11T05:34:39;84096.09;;;-146.98;98.63
28432;BME280;15664;51.302;7.744;2022-12-11T05:37:05;84085.94;;;-146.98;98.43
28432;BME280;15664;51.302;7.744;2022-12-11T05:39:30;84126.66;;;-146.98;98.40
28432;BME280;15664;51.302;7.744;2022-12-11T05:41:55;84130.75;;;-146.98;98.36
28432;BME280;15664;51.302;7.744;2022-12-11T05:44:21;84142.97;;;-146.98;98.52
28432;BME280;15664;51.302;7.744;2022-12-11T05:46:46;84134.81;;;-146.98;98.62
28432;BME280;15664;51.302;7.744;2022-12-11T05:49:11;84147.03;;;-146.98;98.43
28432;BME280;15664;51.302;7.744;2022-12-11T05:51:37;84130.75;;;-146.98;98.45
28432;BME280;15664;51.302;7.744;2022-12-11T05:54:04;84106.28;;;-146.98;98.67
28432;BME280;15664;51.302;7.744;2022-12-11T05:56:31;84114.44;;;-146.98;98.64
28432;BME280;15664;51.302;7.744;2022-12-11T05:58:58;84136.84;;;-146.98;98.76
28432;BME280;15664;51.302;7.744;2022-12-11T06:01:29;84100.19;;;-146.98;98.63
28432;BME280;15664;51.302;7.744;2022-12-11T06:03:56;84110.38;;;-146.98;98.67
28432;BME280;15664;51.302;7.744;2022-12-11T06:06:22;84145.00;;;-146.98;98.67
28432;BME280;15664;51.302;7.744;2022-12-11T06:08:52;84118.50;;;-146.98;98.62
28432;BME280;15664;51.302;7.744;2022-12-11T06:11:18;84118.50;;;-146.98;98.66
28432;BME280;15664;51.302;7.744;2022-12-11T06:13:44;84114.44;;;-146.98;98.61
28432;BME280;15664;51.302;7.744;2022-12-11T06:16:09;84102.22;;;-146.98;98.64
28432;BME280;15664;51.302;7.744;2022-12-11T06:18:40;84108.34;;;-146.98;98.62
28432;BME280;15664;51.302;7.744;2022-12-11T06:23:41;84112.41;;;-146.98;98.70
28432;BME280;15664;51.302;7.744;2022-12-11T06:26:07;84102.22;;;-146.98;98.74
28432;BME280;15664;51.302;7.744;2022-12-11T06:28:33;84136.84;;;-146.98;98.67
28432;BME280;15664;51.302;7.744;2022-12-11T06:30:59;84077.78;;;-146.98;98.53
28432;BME280;15664;51.302;7.744;2022-12-11T06:33:24;84126.66;;;-146.98;98.57
28432;BME280;15664;51.302;7.744;2022-12-11T06:35:50;84130.75;;;-146.98;98.56
28432;BME280;15664;51.302;7.744;2022-12-11T06:38:16;84132.78;;;-146.98;98.62
28432;BME280;15664;51.302;7.744;2022-12-11T06:40:41;84071.66;;;-146.98;98.47
28432;BME280;15664;51.302;7.744;2022-12-11T06:43:07;84104.25;;;-146.98;98.50
28432;BME280;15664;51.302;7.744;2022-12-11T06:45:32;84122.59;;;-146.98;98.24
28432;BME280;15664;51.302;7.744;2022-12-11T06:47:57;84147.03;;;-146.98;97.80
28432;BME280;15664;51.302;7.744;2022-12-11T06:50:23;84069.63;;;-146.98;97.62
28432;BME280;15664;51.302;7.744;2022-12-11T06:52:48;84118.50;;;-146.98;97.66
28432;BME280;15664;51.302;7.744;2022-12-11T06:55:13;84110.38;;;-146.98;97.53
28432;BME280;15664;51.302;7.744;2022-12-11T06:57:39;84134.81;;;-146.98;97.43
28432;BME280;15664;51.302;7.744;2022-12-11T07:00:04;84122.59;;;-146.98;97.20
28432;BME280;15664;51.302;7.744;2022-12-11T07:02:30;84145.00;;;-146.98;97.33
28432;BME280;15664;51.302;7.744;2022-12-11T07:04:56;84104.25;;;-146.98;97.14
28432;BME280;15664;51.302;7.744;2022-12-11T07:07:21;84147.03;;;-146.98;97.05
28432;BME280;15664;51.302;7.744;2022-12-11T07:09:46;84077.78;;;-146.98;96.58
28432;BME280;15664;51.302;7.744;2022-12-11T07:12:11;84081.84;;;-146.98;96.33
28432;BME280;15664;51.302;7.744;2022-12-11T07:14:37;84138.88;;;-146.98;95.99
28432;BME280;15664;51.302;7.744;2022-12-11T07:17:02;84124.63;;;-146.98;95.89
28432;BME280;15664;51.302;7.744;2022-12-11T07:19:27;84116.47;;;-146.98;95.61
28432;BME280;15664;51.302;7.744;2022-12-11T07:21:53;84138.88;;;-146.98;95.54
28432;BME280;15664;51.302;7.744;2022-12-11T07:24:18;84134.81;;;-146.98;95.20
28432;BME280;15664;51.302;7.744;2022-12-11T07:26:43;84069.63;;;-146.98;95.07
28432;BME280;15664;51.302;7.744;2022-12-11T07:29:09;84126.66;;;-146.98;95.13
28432;BME280;15664;51.302;7.744;2022-12-11T07:31:34;84130.75;;;-146.98;94.85
28432;BME280;15664;51.302;7.744;2022-12-11T07:34:02;84116.47;;;-146.98;94.73
28432;BME280;15664;51.302;7.744;2022-12-11T07:36:28;84045.19;;;-146.98;94.53
28432;BME280;15664;51.302;7.744;2022-12-11T07:38:54;84081.84;;;-146.98;94.43
28432;BME280;15664;51.302;7.744;2022-12-11T07:41:20;84110.38;;;-146.98;94.41
28432;BME280;15664;51.302;7.744;2022-12-11T07:43:51;84140.91;;;-146.98;94.41
28432;BME280;15664;51.302;7.744;2022-12-11T07:46:19;84079.81;;;-146.98;94.27
28432;BME280;15664;51.302;7.744;2022-12-11T07:48:46;84118.50;;;-146.98;94.09
28432;BME280;15664;51.302;7.744;2022-12-11T07:51:23;84075.75;;;-146.98;93.98
28432;BME280;15664;51.302;7.744;2022-12-11T07:53:53;84112.41;;;-146.98;93.89
28432;BME280;15664;51.302;7.744;2022-12-11T07:56:19;84106.28;;;-146.98;93.98
28432;BME280;15664;51.302;7.744;2022-12-11T07:58:45;84098.16;;;-146.98;94.22
28432;BME280;15664;51.302;7.744;2022-12-11T08:01:17;84114.44;;;-146.98;94.55
28432;BME280;15664;51.302;7.744;2022-12-11T08:03:42;84102.22;;;-146.98;94.34
28432;BME280;15664;51.302;7.744;2022-12-11T08:06:08;84140.91;;;-146.98;94.28
28432;BME280;15664;51.302;7.744;2022-12-11T08:08:34;84102.22;;;-146.98;94.40
28432;BME280;15664;51.302;7.744;2022-12-11T08:11:00;84085.94;;;-146.98;94.54
28432;BME280;15664;51.302;7.744;2022-12-11T08:13:26;84122.59;;;-146.98;94.72
28432;BME280;15664;51.302;7.744;2022-12-11T08:15:51;84077.78;;;-146.98;94.72
28432;BME280;15664;51.302;7.744;2022-12-11T08:18:17;84075.75;;;-146.98;94.73
28432;BME280;15664;51.302;7.744;2022-12-11T08:20:42;84094.06;;;-146.98;94.70
28432;BME280;15664;51.302;7.744;2022-12-11T08:23:09;84120.56;;;-146.98;94.71
28432;BME280;15664;51.302;7.744;2022-12-11T08:25:35;84075.75;;;-146.98;94.65
28432;BME280;15664;51.302;7.744;2022-12-11T08:28:00;84134.81;;;-146.98;94.50
28432;BME280;15664;51.302;7.744;2022-12-11T08:30:26;84134.81;;;-146.98;94.51
28432;BME280;15664;51.302;7.744;2022-12-11T08:32:51;84126.66;;;-146.98;94.41
28432;BME280;15664;51.302;7.744;2022-12-11T08:35:16;84102.22;;;-146.98;94.32
28432;BME280;15664;51.302;7.744;2022-12-11T08:37:42;84118.50;;;-146.98;94.50
28432;BME280;15664;51.302;7.744;2022-12-11T08:40:09;84073.72;;;-146.98;94.38
28432;BME280;15664;51.302;7.744;2022-12-11T08:42:36;84077.78;;;-146.98;94.27
28432;BME280;15664;51.302;7.744;2022-12-11T08:45:01;84075.75;;;-146.98;93.69
28432;BME280;15664;51.302;7.744;2022-12-11T08:47:27;84110.38;;;-146.98;93.22
28432;BME280;15664;51.302;7.744;2022-12-11T08:49:52;84100.19;;;-146.98;92.39
28432;BME280;15664;51.302;7.744;2022-12-11T08:52:18;84142.97;;;-146.98;92.32
28432;BME280;15664;51.302;7.744;2022-12-11T08:54:43;84057.41;;;-146.98;92.04
28432;BME280;15664;51.302;7.744;2022-12-11T08:57:08;84120.56;;;-146.98;91.59
28432;BME280;15664;51.302;7.744;2022-12-11T08:59:33;84106.28;;;-146.98;91.76
28432;BME280;15664;51.302;7.744;2022-12-11T09:01:59;84114.44;;;-146.98;91.74
28432;BME280;15664;51.302;7.744;2022-12-11T09:04:24;84106.28;;;-146.98;91.58
28432;BME280;15664;51.302;7.744;2022-12-11T09:06:49;84136.84;;;-146.98;91.18
28432;BME280;15664;51.302;7.744;2022-12-11T09:09:15;84106.28;;;-146.98;91.22
28432;BME280;15664;51.302;7.744;2022-12-11T09:11:40;84055.38;;;-146.98;91.17
28432;BME280;15664;51.302;7.744;2022-12-11T09:14:06;84041.13;;;-146.98;91.02
28432;BME280;15664;51.302;7.744;2022-12-11T09:16:32;84073.72;;;-146.98;90.80
28432;BME280;15664;51.302;7.744;2022-12-11T09:18:58;84055.38;;;-146.98;89.74
28432;BME280;15664;51.302;7.744;2022-12-11T09:21:28;84067.59;;;-146.98;89.79
28432;BME280;15664;51.302;7.744;2022-12-11T09:23:56;84055.38;;;-146.98;89.78
28432;BME280;15664;51.302;7.744;2022-12-11T09:26:21;84049.25;;;-146.98;88.61
28432;BME280;15664;51.302;7.744;2022-12-11T09:28:47;84085.94;;;-146.98;88.37
28432;BME280;15664;51.302;7.744;2022-12-11T09:31:18;84114.44;;;-146.98;89.16
28432;BME280;15664;51.302;7.744;2022-12-11T09:33:44;84110.38;;;-146.98;89.13
28432;BME280;15664;51.302;7.744;2022-12-11T09:36:10;84085.94;;;-146.98;89.49
28432;BME280;15664;51.302;7.744;2022-12-11T09:38:36;84063.53;;;-146.98;89.51
28432;BME280;15664;51.302;7.744;2022-12-11T09:41:25;84071.66;;;-146.98;89.34
28432;BME280;15664;51.302;7.744;2022-12-11T09:46:46;84100.19;;;-146.98;88.88
28432;BME280;15664;51.302;7.744;2022-12-11T09:49:26;84067.59;;;-146.98;88.07
28432;BME280;15664;51.302;7.744;2022-12-11T09:52:16;84045.19;;;-146.98;87.51
28432;BME280;15664;51.302;7.744;2022-12-11T09:54:52;84094.06;;;-146.98;87.67
28432;BME280;15664;51.302;7.744;2022-12-11T09:57:49;84077.78;;;-146.98;87.69
28432;BME280;15664;51.302;7.744;2022-12-11T10:00:27;84077.78;;;-146.98;86.57
28432;BME280;15664;51.302;7.744;2022-12-11T10:03:10;84110.38;;;-146.98;86.56
28432;BME280;15664;51.302;7.744;2022-12-11T10:05:56;84083.88;;;-146.98;85.78
28432;BME280;15664;51.302;7.744;2022-12-11T10:14:04;84067.59;;;-146.98;86.40
28432;BME280;15664;51.302;7.744;2022-12-11T10:16:52;84085.94;;;-146.98;86.40
28432;BME280;15664;51.302;7.744;2022-12-11T10:19:26;84118.50;;;-146.98;86.26
28432;BME280;15664;51.302;7.744;2022-12-11T10:21:53;84071.66;;;-146.98;86.38
28432;BME280;15664;51.302;7.744;2022-12-11T10:27:21;84087.97;;;-146.98;86.52
28432;BME280;15664;51.302;7.744;2022-12-11T10:29:52;84065.56;;;-146.98;86.22
28432;BME280;15664;51.302;7.744;2022-12-11T10:32:38;84071.66;;;-146.98;85.67
28432;BME280;15664;51.302;7.744;2022-12-11T10:35:09;84081.84;;;-146.98;85.49
28432;BME280;15664;51.302;7.744;2022-12-11T10:37:41;84059.44;;;-146.98;84.38
28432;BME280;15664;51.302;7.744;2022-12-11T10:40:07;84069.63;;;-146.98;84.08
28432;BME280;15664;51.302;7.744;2022-12-11T10:42:32;84087.97;;;-146.98;83.76
28432;BME280;15664;51.302;7.744;2022-12-11T10:45:03;84016.69;;;-146.98;83.95
28432;BME280;15664;51.302;7.744;2022-12-11T10:47:29;84075.75;;;-146.98;84.18
28432;BME280;15664;51.302;7.744;2022-12-11T10:50:00;84106.28;;;-146.98;83.84
28432;BME280;15664;51.302;7.744;2022-12-11T10:52:34;84085.94;;;-146.98;83.96
28432;BME280;15664;51.302;7.744;2022-12-11T10:55:20;84065.56;;;-146.98;84.38
28432;BME280;15664;51.302;7.744;2022-12-11T10:57:54;84069.63;;;-146.98;84.33
28432;BME280;15664;51.302;7.744;2022-12-11T11:00:40;84063.53;;;-146.98;84.07
28432;BME280;15664;51.302;7.744;2022-12-11T11:03:26;84092.03;;;-146.98;84.45
28432;BME280;15664;51.302;7.744;2022-12-11T11:06:17;84067.59;;;-146.98;84.72
28432;BME280;15664;51.302;7.744;2022-12-11T11:08:45;84014.63;;;-146.98;84.04
28432;BME280;15664;51.302;7.744;2022-12-11T11:11:31;84059.44;;;-146.98;83.83
28432;BME280;15664;51.302;7.744;2022-12-11T11:14:17;84077.78;;;-146.98;83.72
28432;BME280;15664;51.302;7.744;2022-12-11T11:16:45;84028.91;;;-146.98;83.43
28432;BME280;15664;51.302;7.744;2022-12-11T11:19:32;84094.06;;;-146.98;83.83
28432;BME280;15664;51.302;7.744;2022-12-11T11:22:03;84055.38;;;-146.98;84.31
28432;BME280;15664;51.302;7.744;2022-12-11T11:26:55;84051.31;;;-146.98;84.81
28432;BME280;15664;51.302;7.744;2022-12-11T11:29:28;84053.34;;;-146.98;84.30
28432;BME280;15664;51.302;7.744;2022-12-11T11:31:55;84063.53;;;-146.98;83.49
28432;BME280;15664;51.302;7.744;2022-12-11T11:34:21;84032.97;;;-146.98;83.59
28432;BME280;15664;51.302;7.744;2022-12-11T11:36:57;84079.81;;;-146.98;83.91
28432;BME280;15664;51.302;7.744;2022-12-11T11:39:37;84041.13;;;-146.98;83.91
28432;BME280;15664;51.302;7.744;2022-12-11T11:42:18;84073.72;;;-146.98;84.10
28432;BME280;15664;51.302;7.744;2022-12-11T11:45:09;84051.31;;;-146.98;84.52
28432;BME280;15664;51.302;7.744;2022-12-11T11:47:44;84051.31;;;-146.98;84.72
28432;BME280;15664;51.302;7.744;2022-12-11T11:50:19;84083.88;;;-146.98;84.65
28432;BME280;15664;51.302;7.744;2022-12-11T11:52:54;84085.94;;;-146.98;84.69
28432;BME280;15664;51.302;7.744;2022-12-11T11:55:42;84077.78;;;-146.98;84.68
28432;BME280;15664;51.302;7.744;2022-12-11T11:58:17;84094.06;;;-146.98;84.71
28432;BME280;15664;51.302;7.744;2022-12-11T12:00:47;84100.19;;;-146.98;84.67
28432;BME280;15664;51.302;7.744;2022-12-11T12:03:17;84081.84;;;-146.98;84.70
28432;BME280;15664;51.302;7.744;2022-12-11T12:08:49;84122.59;;;-146.98;84.83
28432;BME280;15664;51.302;7.744;2022-12-11T12:11:49;84067.59;;;-146.98;84.86
28432;BME280;15664;51.302;7.744;2022-12-11T12:14:30;84071.66;;;-146.98;84.79
28432;BME280;15664;51.302;7.744;2022-12-11T12:17:19;84126.66;;;-146.98;84.64
28432;BME280;15664;51.302;7.744;2022-12-11T12:25:28;84049.25;;;-146.98;84.33
28432;BME280;15664;51.302;7.744;2022-12-11T12:28:00;84063.53;;;-146.98;84.41
28432;BME280;15664;51.302;7.744;2022-12-11T12:30:37;84030.94;;;-146.98;84.25
28432;BME280;15664;51.302;7.744;2022-12-11T12:33:20;84039.09;;;-146.98;84.28
28432;BME280;15664;51.302;7.744;2022-12-11T12:36:16;84098.16;;;-146.98;84.11
28432;BME280;15664;51.302;7.744;2022-12-11T12:38:53;84053.34;;;-146.98;84.31
28432;BME280;15664;51.302;7.744;2022-12-11T12:41:27;84081.84;;;-146.98;84.00
28432;BME280;15664;51.302;7.744;2022-12-11T12:44:12;84020.75;;;-146.98;84.04
28432;BME280;15664;51.302;7.744;2022-12-11T12:46:45;84004.44;;;-146.98;83.85
28432;BME280;15664;51.302;7.744;2022-12-11T12:49:39;84026.84;;;-146.98;83.16
28432;BME280;15664;51.302;7.744;2022-12-11T12:52:12;84016.69;;;-146.98;83.01
28432;BME280;15664;51.302;7.744;2022-12-11T12:54:39;84014.63;;;-146.98;81.90
28432;BME280;15664;51.302;7.744;2022-12-11T12:57:06;84026.84;;;-146.98;82.07
28432;BME280;15664;51.302;7.744;2022-12-11T12:59:32;84020.75;;;-146.98;82.01
28432;BME280;15664;51.302;7.744;2022-12-11T13:01:59;84008.53;;;-146.98;82.09
28432;BME280;15664;51.302;7.744;2022-12-11T13:04:36;84096.09;;;-146.98;82.00
28432;BME280;15664;51.302;7.744;2022-12-11T13:07:19;84028.91;;;-146.98;82.12
28432;BME280;15664;51.302;7.744;2022-12-11T13:10:24;84061.47;;;-146.98;82.16
28432;BME280;15664;51.302;7.744;2022-12-11T13:12:50;84045.19;;;-146.98;82.21
28432;BME280;15664;51.302;7.744;2022-12-11T13:18:01;84061.47;;;-146.98;82.58
28432;BME280;15664;51.302;7.744;2022-12-11T13:20:30;84051.31;;;-146.98;83.00
28432;BME280;15664;51.302;7.744;2022-12-11T13:25:28;84035.00;;;-146.98;83.16
28432;BME280;15664;51.302;7.744;2022-12-11T13:31:06;84053.34;;;-146.98;83.63
28432;BME280;15664;51.302;7.744;2022-12-11T13:33:38;84012.59;;;-146.98;83.61
28432;BME280;15664;51.302;7.744;2022-12-11T13:38:34;84059.44;;;-146.98;83.59
28432;BME280;15664;51.302;7.744;2022-12-11T13:41:02;84043.16;;;-146.98;82.45
28432;BME280;15664;51.302;7.744;2022-12-11T13:43:32;84061.47;;;-146.98;81.83
28432;BME280;15664;51.302;7.744;2022-12-11T13:45:59;84039.09;;;-146.98;81.94